Time;durP1;ratioP1;P1;durP2;ratioP2;P2;SDS_P1;SDS_P2;PMS_P1;PMS_P2;Temp;Humidity;BMP_temperature;BMP_pressure;BME280_temperature;BME280_humidity;BME280_pressure;Samples;Min_cycle;Max_cycle;Signal;HPM_P1;HPM_P2
2023/08/22 00:01:54;;;;;;;15.57;4.60;;;;;;;18.85;100.00;101911.06;5074936;28;20035;-71
2023/08/22 00:04:19;;;;;;;13.65;4.13;;;;;;;18.85;100.00;101909.25;5074800;28;20376;-69
2023/08/22 00:06:44;;;;;;;14.82;4.13;;;;;;;18.88;100.00;101911.03;5073614;28;20060;-69
2023/08/22 00:09:11;;;;;;;13.27;4.40;;;;;;;18.85;100.00;101916.41;5074748;28;20035;-69
2023/08/22 00:11:37;;;;;;;15.05;4.45;;;;;;;18.77;100.00;101909.38;5074603;28;20033;-65
2023/08/22 00:14:02;;;;;;;16.58;4.50;;;;;;;18.78;100.00;101918.28;5074847;28;20028;-71
2023/08/22 00:16:27;;;;;;;14.52;4.50;;;;;;;18.79;100.00;101918.25;5074454;28;20042;-66
2023/08/22 00:18:53;;;;;;;15.82;4.80;;;;;;;18.80;100.00;101916.47;5074536;28;20048;-64
2023/08/22 00:21:18;;;;;;;16.85;5.03;;;;;;;18.89;100.00;101907.47;5074705;28;20055;-71
2023/08/22 00:23:44;;;;;;;18.92;5.18;;;;;;;18.84;100.00;101914.63;5074392;28;20116;-66
2023/08/22 00:26:09;;;;;;;15.90;4.93;;;;;;;18.74;100.00;101911.19;5074605;28;20471;-68
2023/08/22 00:28:34;;;;;;;17.55;4.80;;;;;;;18.65;100.00;101909.50;5074567;28;20421;-69
2023/08/22 00:31:00;;;;;;;16.75;4.80;;;;;;;18.51;100.00;101912.38;5074278;28;20033;-67
2023/08/22 00:33:25;;;;;;;16.88;5.03;;;;;;;18.32;100.00;101916.13;5074495;28;20032;-68
2023/08/22 00:35:50;;;;;;;14.70;4.90;;;;;;;18.23;100.00;101911.78;5073087;28;20024;-66
2023/08/22 00:38:16;;;;;;;16.95;4.75;;;;;;;18.32;100.00;101905.44;5074445;28;20082;-69
2023/08/22 00:40:41;;;;;;;14.75;4.78;;;;;;;18.35;100.00;101903.63;5074404;28;20043;-64
2023/08/22 00:43:06;;;;;;;15.10;4.57;;;;;;;18.38;100.00;101906.25;5074049;28;20119;-69
2023/08/22 00:45:32;;;;;;;16.02;4.50;;;;;;;18.34;100.00;101899.16;5073995;28;20082;-72
2023/08/22 00:47:58;;;;;;;17.30;4.70;;;;;;;18.32;100.00;101902.75;5074095;28;20074;-69
2023/08/22 00:50:24;;;;;;;17.00;4.50;;;;;;;18.37;100.00;101907.16;5073876;28;20391;-65
2023/08/22 00:52:49;;;;;;;13.32;4.20;;;;;;;18.32;100.00;101895.63;5073836;28;20031;-65
2023/08/22 00:55:15;;;;;;;14.07;4.30;;;;;;;18.37;100.00;101893.78;5073930;28;20032;-65
2023/08/22 00:57:41;;;;;;;13.85;4.40;;;;;;;18.39;100.00;101894.66;5074027;28;20089;-65
2023/08/22 01:00:10;;;;;;;16.90;4.38;;;;;;;18.39;100.00;101894.66;5073889;28;20427;-65
2023/08/22 01:02:37;;;;;;;15.55;4.60;;;;;;;18.43;100.00;101898.16;5073872;28;20052;-65
2023/08/22 01:05:03;;;;;;;16.42;5.00;;;;;;;18.40;100.00;101893.72;5073535;28;20123;-65
2023/08/22 01:07:40;;;;;;;16.40;4.78;;;;;;;18.35;100.00;101887.56;5073491;28;20081;-65
2023/08/22 01:10:19;;;;;;;16.63;4.70;;;;;;;18.28;100.00;101888.53;5073738;28;20017;-65
2023/08/22 01:12:55;;;;;;;15.68;4.50;;;;;;;18.26;100.00;101893.00;5070350;28;20021;-65
2023/08/22 01:15:25;;;;;;;16.15;4.40;;;;;;;18.19;100.00;101888.63;5073380;28;20027;-65
2023/08/22 01:17:54;;;;;;;16.40;4.70;;;;;;;18.02;100.00;101889.69;5073351;28;20425;-65
2023/08/22 01:20:20;;;;;;;16.73;4.55;;;;;;;18.01;100.00;101887.91;5073233;28;20035;-65
2023/08/22 01:22:46;;;;;;;16.17;4.70;;;;;;;17.93;100.00;101895.16;5073437;28;20053;-65
2023/08/22 01:25:11;;;;;;;15.35;4.70;;;;;;;17.93;100.00;101893.34;5073346;28;20480;-65
2023/08/22 01:28:00;;;;;;;17.83;4.80;;;;;;;17.91;100.00;101896.94;5073365;28;20115;-65
2023/08/22 01:30:34;;;;;;;16.85;4.93;;;;;;;17.92;100.00;101883.53;5071474;28;20017;-65
2023/08/22 01:33:07;;;;;;;16.05;4.97;;;;;;;17.96;100.00;101880.88;5073263;28;20083;-65
2023/08/22 01:35:33;;;;;;;17.25;5.15;;;;;;;17.99;100.00;101871.00;5073128;28;20032;-65
2023/08/22 01:38:00;;;;;;;18.35;4.93;;;;;;;18.02;100.00;101873.63;5072943;28;20036;-75
2023/08/22 01:40:26;;;;;;;18.25;5.78;;;;;;;17.98;100.00;101873.69;5073223;28;20029;-75
2023/08/22 01:42:52;;;;;;;18.25;5.40;;;;;;;17.98;100.00;101874.56;5073131;28;20039;-75
2023/08/22 01:45:17;;;;;;;19.15;6.18;;;;;;;18.00;100.00;101878.13;5072976;28;20395;-75
2023/08/22 01:47:43;;;;;;;17.42;5.60;;;;;;;18.00;100.00;101878.13;5073153;28;20031;-75
2023/08/22 01:50:08;;;;;;;16.58;5.65;;;;;;;17.90;100.00;101876.47;5073414;28;20113;-72
2023/08/22 01:52:34;;;;;;;18.10;5.70;;;;;;;18.03;100.00;101871.88;5073131;28;20070;-74
2023/08/22 01:54:59;;;;;;;19.63;5.97;;;;;;;18.02;100.00;101876.31;5073270;28;20031;-75
2023/08/22 01:57:24;;;;;;;19.77;6.70;;;;;;;18.01;100.00;101874.53;5072660;28;20501;-76
2023/08/22 01:59:50;;;;;;;17.98;6.05;;;;;;;18.01;100.00;101871.84;5072405;28;20107;-75
2023/08/22 02:02:15;;;;;;;18.20;6.57;;;;;;;18.06;100.00;101870.03;5072508;28;20032;-75
2023/08/22 02:04:40;;;;;;;19.67;6.22;;;;;;;18.00;100.00;101871.88;5072579;28;20036;-75
2023/08/22 02:07:06;;;;;;;18.40;6.32;;;;;;;17.98;100.00;101871.03;5072516;28;20044;-75
2023/08/22 02:09:31;;;;;;;19.83;6.25;;;;;;;17.95;100.00;101874.59;5072803;28;20041;-71
2023/08/22 02:11:56;;;;;;;19.52;6.50;;;;;;;17.98;100.00;101866.53;5072977;28;20033;-75
2023/08/22 02:14:22;;;;;;;19.15;6.85;;;;;;;18.12;100.00;101866.41;5072503;28;20543;-66
2023/08/22 02:16:47;;;;;;;17.75;5.80;;;;;;;18.03;100.00;101866.53;5072728;28;20041;-75
2023/08/22 02:19:12;;;;;;;17.83;5.90;;;;;;;18.08;100.00;101865.53;5072612;28;20492;-76
2023/08/22 02:21:38;;;;;;;17.80;5.95;;;;;;;18.15;100.00;101862.81;5072545;28;20467;-75
2023/08/22 02:24:03;;;;;;;19.85;6.28;;;;;;;17.97;100.00;101856.78;5072514;28;20460;-72
2023/08/22 02:26:30;;;;;;;18.90;6.15;;;;;;;17.95;100.00;101853.22;5072739;28;20025;-67
2023/08/22 02:28:56;;;;;;;19.88;6.38;;;;;;;17.87;100.00;101850.59;5072728;28;20384;-67
2023/08/22 02:31:21;;;;;;;20.92;6.38;;;;;;;17.90;100.00;101853.25;5072504;28;20024;-66
2023/08/22 02:33:46;;;;;;;18.52;6.55;;;;;;;17.86;100.00;101853.28;5072383;28;20559;-66
2023/08/22 02:36:12;;;;;;;17.95;6.22;;;;;;;17.80;100.00;101853.34;5072544;28;20032;-68
2023/08/22 02:38:37;;;;;;;18.38;6.00;;;;;;;17.71;100.00;101849.84;5072662;28;20119;-67
2023/08/22 02:41:03;;;;;;;19.42;6.18;;;;;;;17.69;100.00;101840.97;5071006;28;20060;-68
2023/08/22 02:43:30;;;;;;;18.85;6.05;;;;;;;17.66;100.00;101850.78;5072470;28;20032;-67
2023/08/22 02:45:55;;;;;;;17.35;6.20;;;;;;;17.60;100.00;101846.38;5072282;28;20116;-71
2023/08/22 02:48:21;;;;;;;17.75;6.20;;;;;;;17.58;100.00;101856.22;5072290;28;20515;-73
2023/08/22 02:50:49;;;;;;;20.92;6.28;;;;;;;17.54;100.00;101857.13;5072560;28;20036;-72
2023/08/22 02:53:15;;;;;;;18.67;6.32;;;;;;;17.53;100.00;101856.25;5072231;28;20414;-72
2023/08/22 02:55:40;;;;;;;18.88;6.53;;;;;;;17.48;100.00;101852.72;5072125;28;20100;-73
2023/08/22 02:58:06;;;;;;;18.33;6.25;;;;;;;17.44;100.00;101856.31;5072305;28;20037;-74
2023/08/22 03:00:33;;;;;;;19.45;6.63;;;;;;;17.32;100.00;101849.28;5072201;28;20024;-73
2023/08/22 03:02:58;;;;;;;20.25;6.80;;;;;;;17.29;100.00;101848.44;5072200;28;20025;-68
2023/08/22 03:05:24;;;;;;;19.70;6.88;;;;;;;17.25;100.00;101852.91;5072245;28;20526;-66
2023/08/22 03:07:49;;;;;;;19.15;6.80;;;;;;;17.26;100.00;101854.69;5072077;28;20479;-66
2023/08/22 03:10:15;;;;;;;20.52;6.72;;;;;;;17.20;100.00;101857.41;5072469;28;20039;-68
2023/08/22 03:12:40;;;;;;;20.23;7.22;;;;;;;17.13;100.00;101861.91;5074233;28;20074;-65
2023/08/22 03:15:06;;;;;;;20.65;7.13;;;;;;;17.03;100.00;101865.53;5075677;28;20036;-66
2023/08/22 03:17:31;;;;;;;19.35;7.10;;;;;;;17.01;100.00;101857.53;5075763;28;20036;-66
2023/08/22 03:19:57;;;;;;;18.67;6.90;;;;;;;17.04;100.00;101868.19;5075765;28;20101;-69
2023/08/22 03:22:23;;;;;;;19.77;7.47;;;;;;;17.11;100.00;101861.03;5075637;28;20021;-65
2023/08/22 03:24:48;;;;;;;20.13;6.93;;;;;;;17.14;100.00;101860.09;5075777;28;20399;-66
2023/08/22 03:27:14;;;;;;;19.77;7.38;;;;;;;17.11;100.00;101855.69;5075556;28;20082;-64
2023/08/22 03:29:39;;;;;;;20.83;7.35;;;;;;;17.05;100.00;101847.69;5075363;28;20028;-65
2023/08/22 03:32:04;;;;;;;20.45;7.97;;;;;;;17.00;100.00;101858.41;5075606;28;20036;-69
2023/08/22 03:34:30;;;;;;;20.00;7.95;;;;;;;16.99;100.00;101861.97;5074156;28;20036;-66
2023/08/22 03:36:55;;;;;;;20.55;7.30;;;;;;;16.97;100.00;101861.13;5075153;28;20109;-68
2023/08/22 03:39:20;;;;;;;18.90;7.65;;;;;;;16.86;100.00;101853.16;5075483;28;20520;-68
2023/08/22 03:41:46;;;;;;;19.95;7.65;;;;;;;16.82;100.00;101858.47;5075344;28;20494;-68
2023/08/22 03:44:12;;;;;;;19.50;8.05;;;;;;;16.78;100.00;101857.63;5075403;28;20390;-65
2023/08/22 03:46:37;;;;;;;19.63;7.57;;;;;;;16.79;100.00;101858.50;5074144;28;20127;-68
2023/08/22 03:49:03;;;;;;;21.65;8.07;;;;;;;16.78;100.00;101860.28;5075076;28;20459;-68
2023/08/22 03:51:30;;;;;;;20.27;7.80;;;;;;;16.72;100.00;101855.00;5075293;28;20036;-66
2023/08/22 03:53:55;;;;;;;21.10;7.20;;;;;;;16.72;100.00;101855.88;5074968;28;20024;-66
2023/08/22 03:56:20;;;;;;;20.63;7.53;;;;;;;16.63;100.00;101850.59;5074934;28;20036;-66
2023/08/22 03:58:46;;;;;;;21.25;8.15;;;;;;;16.69;100.00;101853.22;5075148;28;20037;-66
2023/08/22 04:01:11;;;;;;;21.65;8.15;;;;;;;16.67;100.00;101855.03;5074951;28;20029;-65
2023/08/22 04:03:36;;;;;;;20.60;7.53;;;;;;;16.62;100.00;101858.63;5074869;28;20082;-66
2023/08/22 04:06:03;;;;;;;20.55;8.05;;;;;;;16.64;100.00;101854.13;5074878;28;20080;-66
2023/08/22 04:08:29;;;;;;;20.33;8.35;;;;;;;16.60;100.00;101855.03;5074697;28;20035;-66
2023/08/22 04:10:56;;;;;;;20.33;7.82;;;;;;;16.54;100.00;101850.63;5074822;28;20029;-66
2023/08/22 04:13:22;;;;;;;20.48;7.90;;;;;;;16.55;100.00;101855.06;5074839;28;20048;-67
2023/08/22 04:15:47;;;;;;;19.58;7.90;;;;;;;16.49;100.00;101850.63;5074545;28;20060;-67
2023/08/22 04:18:12;;;;;;;20.17;8.00;;;;;;;16.49;100.00;101844.44;5073247;28;20392;-67
2023/08/22 04:20:39;;;;;;;20.83;8.52;;;;;;;16.44;100.00;101843.53;5074578;28;20679;-68
2023/08/22 04:23:05;;;;;;;19.58;7.80;;;;;;;16.50;100.00;101848.88;5074241;28;20017;-67
2023/08/22 04:25:30;;;;;;;19.20;7.50;;;;;;;16.58;100.00;101847.03;5074466;28;20364;-65
2023/08/22 04:27:56;;;;;;;20.23;7.53;;;;;;;16.43;100.00;101848.00;5074572;28;20387;-67
2023/08/22 04:30:21;;;;;;;20.45;7.85;;;;;;;16.37;100.00;101845.38;5074409;28;20480;-66
2023/08/22 04:32:46;;;;;;;19.80;8.27;;;;;;;16.33;100.00;101839.16;5074473;28;20025;-66
2023/08/22 04:35:12;;;;;;;20.05;8.57;;;;;;;16.29;100.00;101840.03;5074529;28;20043;-66
2023/08/22 04:37:37;;;;;;;20.05;8.27;;;;;;;16.24;100.00;101836.53;5074055;28;20479;-65
2023/08/22 04:40:03;;;;;;;19.17;8.35;;;;;;;16.24;100.00;101844.53;5074338;28;20073;-65
2023/08/22 04:42:29;;;;;;;19.05;7.70;;;;;;;16.23;100.00;101844.53;5074073;28;20025;-65
2023/08/22 04:44:54;;;;;;;21.35;8.10;;;;;;;16.20;100.00;101848.09;5073971;28;20021;-65
2023/08/22 04:47:20;;;;;;;19.77;7.60;;;;;;;16.18;100.00;101845.44;5074200;28;20528;-65
2023/08/22 04:49:46;;;;;;;20.55;7.93;;;;;;;16.15;100.00;101840.09;5073995;28;20112;-65
2023/08/22 04:52:11;;;;;;;19.58;8.02;;;;;;;16.14;100.00;101845.44;5074009;28;20035;-65
2023/08/22 04:54:36;;;;;;;20.38;8.25;;;;;;;16.04;100.00;101856.13;5074324;28;20376;-65
2023/08/22 04:57:02;;;;;;;20.65;8.55;;;;;;;16.02;100.00;101851.72;5073643;28;20388;-65
2023/08/22 04:59:27;;;;;;;20.90;9.02;;;;;;;16.07;100.00;101849.03;5073764;28;20040;-65
2023/08/22 05:01:53;;;;;;;20.45;9.23;;;;;;;16.00;100.00;101849.03;5072658;28;20388;-65
2023/08/22 05:04:18;;;;;;;20.02;8.60;;;;;;;16.09;100.00;101852.56;5072450;28;20031;-65
2023/08/22 05:06:45;;;;;;;22.98;9.18;;;;;;;16.16;100.00;101854.31;5073425;28;20051;-64
2023/08/22 05:09:14;;;;;;;21.48;9.00;;;;;;;16.14;100.00;101858.78;5073997;28;20051;-65
2023/08/22 05:11:40;;;;;;;21.67;8.95;;;;;;;16.18;100.00;101860.56;5073535;28;20101;-65
2023/08/22 05:14:05;;;;;;;21.05;10.35;;;;;;;16.19;100.00;101856.97;5073418;28;20029;-65
2023/08/22 05:16:30;;;;;;;22.25;10.95;;;;;;;16.24;100.00;101857.88;5073538;28;20036;-65
2023/08/22 05:18:56;;;;;;;24.08;11.50;;;;;;;16.23;100.00;101861.41;5073487;28;20630;-65
2023/08/22 05:21:21;;;;;;;22.25;10.50;;;;;;;16.27;100.00;101857.84;5073518;28;20467;-65
2023/08/22 05:23:47;;;;;;;21.85;9.90;;;;;;;16.34;100.00;101854.25;5073329;28;20029;-65
2023/08/22 05:26:12;;;;;;;21.75;10.73;;;;;;;16.40;100.00;101853.34;5073289;28;20387;-65
2023/08/22 05:28:37;;;;;;;25.30;12.13;;;;;;;16.43;100.00;101858.69;5073390;28;20045;-65
2023/08/22 05:31:03;;;;;;;21.23;10.63;;;;;;;16.50;100.00;101851.56;5073205;28;20063;-65
2023/08/22 05:33:28;;;;;;;23.85;11.75;;;;;;;16.55;100.00;101857.75;5073086;28;20520;-65
2023/08/22 05:35:54;;;;;;;22.75;11.52;;;;;;;16.62;100.00;101858.63;5073150;28;20398;-65
2023/08/22 05:38:19;;;;;;;23.38;10.52;;;;;;;16.65;100.00;101847.91;5073091;28;20040;-65
2023/08/22 05:40:44;;;;;;;25.10;13.10;;;;;;;16.74;100.00;101854.06;5073133;28;20141;-65
2023/08/22 05:43:10;;;;;;;24.67;12.27;;;;;;;16.78;100.00;101851.41;5073169;28;20021;-65
2023/08/22 05:45:35;;;;;;;25.10;13.07;;;;;;;16.85;100.00;101851.34;5073291;28;20041;-65
2023/08/22 05:48:01;;;;;;;24.20;13.55;;;;;;;16.90;100.00;101849.56;5073133;28;20032;-65
2023/08/22 05:50:26;;;;;;;23.20;12.95;;;;;;;16.99;100.00;101853.97;5073068;28;20472;-65
2023/08/22 05:52:51;;;;;;;24.27;13.35;;;;;;;16.98;100.00;101862.91;5072837;28;20025;-65
2023/08/22 05:55:17;;;;;;;23.77;13.68;;;;;;;16.98;100.00;101868.22;5072816;28;20023;-65
2023/08/22 05:57:42;;;;;;;23.77;13.23;;;;;;;17.08;100.00;101856.59;5072971;28;20036;-65
2023/08/22 06:00:08;;;;;;;26.35;15.43;;;;;;;17.16;100.00;101861.00;5072728;28;20032;-66
2023/08/22 06:02:34;;;;;;;26.15;15.32;;;;;;;17.20;100.00;101862.75;5073027;28;20052;-65
2023/08/22 06:05:00;;;;;;;26.23;16.13;;;;;;;17.23;100.00;101868.06;5071075;28;20028;-64
2023/08/22 06:07:26;;;;;;;25.77;15.85;;;;;;;17.28;100.00;101871.59;5073466;28;20039;-64
2023/08/22 06:09:51;;;;;;;25.80;16.80;;;;;;;17.34;100.00;101866.19;5072977;28;20020;-63
2023/08/22 06:12:17;;;;;;;26.98;16.08;;;;;;;17.37;100.00;101868.88;5072480;28;20521;-63
2023/08/22 06:14:42;;;;;;;26.08;15.30;;;;;;;17.48;100.00;101871.44;5088006;28;20064;-64
2023/08/22 06:17:09;;;;;;;26.23;15.45;;;;;;;17.52;100.00;101869.63;5072603;28;20103;-64
2023/08/22 06:19:34;;;;;;;25.65;15.13;;;;;;;17.55;100.00;101867.81;5072245;28;20384;-64
2023/08/22 06:21:59;;;;;;;24.55;14.93;;;;;;;17.60;100.00;101870.44;5072373;28;20032;-64
2023/08/22 06:24:25;;;;;;;25.65;15.50;;;;;;;17.68;100.00;101871.28;5072605;28;20055;-64
2023/08/22 06:26:50;;;;;;;25.98;15.15;;;;;;;17.84;100.00;101868.44;5072416;28;20033;-63
2023/08/22 06:29:16;;;;;;;26.58;14.93;;;;;;;17.87;100.00;101871.09;5072393;28;20028;-63
2023/08/22 06:31:42;;;;;;;26.60;14.57;;;;;;;17.90;100.00;101869.31;5071957;28;20029;-64
2023/08/22 06:34:07;;;;;;;26.35;13.68;;;;;;;17.94;100.00;101863.03;5072344;28;20368;-63
2023/08/22 06:36:33;;;;;;;23.08;12.75;;;;;;;18.03;100.00;101878.09;5072221;28;20071;-64
2023/08/22 06:38:58;;;;;;;24.95;12.40;;;;;;;18.09;100.00;101877.16;5072650;28;20483;-64
2023/08/22 06:41:23;;;;;;;22.73;11.85;;;;;;;18.18;100.00;101884.19;5071174;28;20029;-64
2023/08/22 06:43:50;;;;;;;23.13;11.88;;;;;;;18.29;100.00;101879.63;5071843;28;20021;-64
2023/08/22 06:46:16;;;;;;;24.52;12.25;;;;;;;18.33;100.00;101875.09;5072227;28;20025;-63
2023/08/22 06:48:42;;;;;;;23.60;11.50;;;;;;;18.45;100.00;101880.31;5076153;28;20031;-63
2023/08/22 06:51:08;;;;;;;22.25;11.10;;;;;;;18.50;100.00;101893.66;5076431;28;20032;-64
2023/08/22 06:53:33;;;;;;;22.40;10.73;;;;;;;18.56;100.00;101893.56;5075945;28;20031;-65
2023/08/22 06:55:59;;;;;;;22.63;10.75;;;;;;;18.61;100.00;101891.69;5075610;28;20025;-64
2023/08/22 06:58:24;;;;;;;22.25;11.27;;;;;;;18.70;100.00;101904.09;5076400;28;20082;-64
2023/08/22 07:00:49;;;;;;;22.27;10.27;;;;;;;18.85;100.00;101908.38;5075955;28;20039;-64
2023/08/22 07:03:15;;;;;;;22.23;10.10;;;;;;;18.91;100.00;101911.88;5075901;28;20083;-65
2023/08/22 07:05:40;;;;;;;21.25;9.70;;;;;;;19.03;100.00;101905.44;5075639;28;20048;-64
2023/08/22 07:08:07;;;;;;;21.05;10.30;;;;;;;19.15;100.00;101899.94;5075626;28;20090;-64
2023/08/22 07:10:34;;;;;;;19.92;8.63;;;;;;;19.22;100.00;101906.09;5075826;28;20028;-64
2023/08/22 07:12:59;;;;;;;19.33;7.80;;;;;;;19.28;100.00;101899.72;5076113;28;20021;-63
2023/08/22 07:15:24;;;;;;;19.42;6.90;;;;;;;19.32;100.00;101912.19;5075708;28;20384;-64
2023/08/22 07:17:51;;;;;;;19.40;6.80;;;;;;;19.42;100.00;101911.13;5075412;28;20032;-64
2023/08/22 07:20:17;;;;;;;20.40;6.60;;;;;;;19.57;100.00;101906.44;5075367;28;20036;-64
2023/08/22 07:22:42;;;;;;;17.75;6.82;;;;;;;19.70;100.00;101908.00;5075519;28;20032;-64
2023/08/22 07:25:08;;;;;;;18.33;5.97;;;;;;;19.79;100.00;101909.66;5074343;28;20036;-64
2023/08/22 07:27:33;;;;;;;17.35;5.50;;;;;;;19.90;100.00;101904.13;5075387;28;20036;-64
2023/08/22 07:29:58;;;;;;;16.67;5.25;;;;;;;20.01;100.00;101908.38;5075424;28;20205;-64
2023/08/22 07:32:24;;;;;;;17.48;5.38;;;;;;;20.16;100.00;101906.34;5075203;28;20032;-64
2023/08/22 07:34:49;;;;;;;19.38;6.25;;;;;;;20.32;100.00;101901.56;5075520;28;20074;-64
2023/08/22 07:37:15;;;;;;;18.65;6.18;;;;;;;20.53;100.00;101903.81;5075181;28;20029;-64
2023/08/22 07:39:41;;;;;;;17.67;5.93;;;;;;;20.67;100.00;101898.16;5075514;28;20464;-69
2023/08/22 07:42:07;;;;;;;19.52;6.53;;;;;;;20.81;100.00;101900.56;5075180;28;20064;-67
2023/08/22 07:44:33;;;;;;;20.25;6.70;;;;;;;21.04;100.00;101907.22;5074769;28;20029;-66
2023/08/22 07:46:58;;;;;;;20.50;6.45;;;;;;;21.32;100.00;101907.47;5075256;28;20387;-66
2023/08/22 07:49:24;;;;;;;20.50;7.28;;;;;;;21.61;100.00;101907.72;5073762;28;20464;-70
2023/08/22 07:51:50;;;;;;;20.38;6.70;;;;;;;21.86;100.00;101903.47;5074892;28;20028;-66
2023/08/22 07:54:16;;;;;;;20.42;6.88;;;;;;;22.07;100.00;101907.38;5075082;28;20036;-66
2023/08/22 07:56:41;;;;;;;20.42;6.88;;;;;;;22.10;100.00;101911.81;5074411;28;20086;-66
2023/08/22 07:59:06;;;;;;;20.80;6.65;;;;;;;22.20;100.00;101904.38;5073961;28;20503;-66
2023/08/22 08:01:33;;;;;;;20.80;7.13;;;;;;;22.01;100.00;101912.06;5074911;28;20519;-66
2023/08/22 08:03:59;;;;;;;19.30;7.40;;;;;;;21.81;100.00;101908.09;5074838;28;20099;-66
2023/08/22 08:06:24;;;;;;;22.95;7.95;;;;;;;21.76;100.00;101916.28;5074717;28;20144;-66
2023/08/22 08:08:50;;;;;;;20.42;8.02;;;;;;;21.88;100.00;101914.19;5075352;28;20016;-66
2023/08/22 08:11:15;;;;;;;20.60;7.75;;;;;;;22.05;100.00;101903.00;5070315;28;20117;-68
2023/08/22 08:13:41;;;;;;;21.15;8.18;;;;;;;22.07;100.00;101902.00;5074918;28;20056;-66
2023/08/22 08:16:06;;;;;;;20.33;8.48;;;;;;;22.18;100.00;101917.88;5074924;28;20083;-66
2023/08/22 08:18:32;;;;;;;20.45;7.95;;;;;;;22.13;100.00;101919.81;5072514;28;20025;-68
2023/08/22 08:20:57;;;;;;;20.58;7.85;;;;;;;22.11;100.00;101929.75;5074332;28;20387;-69
2023/08/22 08:23:22;;;;;;;21.02;7.80;;;;;;;21.96;100.00;101930.13;5073954;28;20029;-66
2023/08/22 08:25:48;;;;;;;20.23;7.47;;;;;;;21.81;100.00;101923.34;5074584;28;20051;-69
2023/08/22 08:28:14;;;;;;;21.73;7.07;;;;;;;21.85;100.00;101927.75;5074508;28;20116;-71
2023/08/22 08:30:39;;;;;;;19.92;7.35;;;;;;;21.88;100.00;101933.91;5074413;28;20024;-66
2023/08/22 08:33:06;;;;;;;21.60;7.50;;;;;;;22.03;100.00;101932.66;5074094;28;20108;-65
2023/08/22 08:35:32;;;;;;;21.27;7.10;;;;;;;22.28;100.00;101932.84;5073991;28;20399;-65
2023/08/22 08:37:57;;;;;;;19.35;6.93;;;;;;;22.29;100.00;101928.34;5073961;28;20036;-65
2023/08/22 08:40:22;;;;;;;20.92;6.95;;;;;;;22.34;100.00;101925.56;5073953;28;20044;-65
2023/08/22 08:42:48;;;;;;;21.02;7.35;;;;;;;22.42;100.00;101928.94;5074396;28;20029;-68
2023/08/22 08:45:15;;;;;;;21.00;6.80;;;;;;;22.57;100.00;101920.41;5073925;28;20403;-67
2023/08/22 08:47:41;;;;;;;20.77;7.03;;;;;;;22.94;100.00;101930.09;5073540;28;20032;-67
2023/08/22 08:50:08;;;;;;;19.33;6.60;;;;;;;23.38;100.00;101920.69;5073999;28;20028;-66
2023/08/22 08:52:35;;;;;;;20.00;6.60;;;;;;;23.63;100.00;101912.66;5073831;28;20114;-70
2023/08/22 08:55:03;;;;;;;19.33;6.70;;;;;;;23.48;100.00;101924.84;5073572;28;20016;-71
2023/08/22 08:57:29;;;;;;;20.75;6.82;;;;;;;23.45;100.00;101931.22;5069509;28;20060;-72
2023/08/22 08:59:54;;;;;;;21.55;6.75;;;;;;;23.75;100.00;101922.16;5073733;28;20495;-72
2023/08/22 09:02:20;;;;;;;21.58;6.75;;;;;;;23.93;100.00;101935.06;5073435;28;20113;-71
2023/08/22 09:04:45;;;;;;;20.58;7.68;;;;;;;23.74;100.00;101933.91;5073920;28;20120;-71
2023/08/22 09:07:11;;;;;;;20.40;7.63;;;;;;;23.63;100.00;101937.81;5073500;28;20072;-71
2023/08/22 09:09:36;;;;;;;20.90;8.65;;;;;;;23.51;100.00;101927.44;5073546;28;20028;-70
2023/08/22 09:12:15;;;;;;;22.27;9.52;;;;;;;23.37;100.00;101935.97;5073848;28;20029;-71
2023/08/22 09:14:44;;;;;;;22.65;8.98;;;;;;;23.13;100.00;101935.81;5073505;28;20555;-72
2023/08/22 09:17:12;;;;;;;22.45;9.05;;;;;;;22.90;100.00;101936.50;5073308;28;20032;-72
2023/08/22 09:19:38;;;;;;;22.20;9.50;;;;;;;22.83;100.00;101937.59;5073412;28;20127;-72
2023/08/22 09:22:04;;;;;;;21.35;9.00;;;;;;;22.87;100.00;101933.91;5073647;28;20433;-71
2023/08/22 09:24:31;;;;;;;22.52;9.30;;;;;;;23.06;100.00;101930.66;5073199;28;20027;-72
2023/08/22 09:26:57;;;;;;;21.33;8.75;;;;;;;23.13;100.00;101933.13;5073424;28;20112;-72
2023/08/22 09:29:29;;;;;;;21.52;8.35;;;;;;;23.51;100.00;101938.25;5073254;28;20127;-70
2023/08/22 09:32:05;;;;;;;21.35;8.32;;;;;;;23.59;100.00;101941.56;5069805;28;20063;-71
2023/08/22 09:34:32;;;;;;;22.33;8.60;;;;;;;23.60;100.00;101928.97;5070348;28;20025;-69
2023/08/22 09:36:57;;;;;;;21.83;8.25;;;;;;;24.23;100.00;101926.78;5073422;28;20043;-72
2023/08/22 09:39:24;;;;;;;21.33;8.00;;;;;;;25.44;100.00;101927.66;5073340;28;20426;-73
2023/08/22 09:41:56;;;;;;;21.65;8.15;;;;;;;26.20;100.00;101934.38;5071639;28;20070;-72
2023/08/22 09:44:23;;;;;;;21.60;8.25;;;;;;;26.68;100.00;101943.09;5069156;28;20028;-72
2023/08/22 09:46:51;;;;;;;20.95;8.30;;;;;;;27.05;100.00;101949.47;5072886;28;20490;-73
2023/08/22 09:49:17;;;;;;;21.10;8.38;;;;;;;26.69;100.00;101938.53;5072897;28;20055;-65
2023/08/22 09:51:47;;;;;;;21.05;8.65;;;;;;;26.59;100.00;101946.16;5073085;28;20024;-65
2023/08/22 09:54:13;;;;;;;21.05;8.18;;;;;;;26.55;100.00;101939.16;5072842;28;20056;-65
2023/08/22 09:56:39;;;;;;;20.27;7.63;;;;;;;26.60;100.00;101937.97;5072801;28;20032;-65
2023/08/22 09:59:05;;;;;;;20.60;7.80;;;;;;;26.08;100.00;101941.22;5072960;28;20028;-65
2023/08/22 10:01:33;;;;;;;21.45;7.85;;;;;;;25.42;100.00;101946.66;5071756;28;20467;-65
2023/08/22 10:04:03;;;;;;;20.23;7.72;;;;;;;25.22;100.00;101944.72;5072762;28;20032;-65
2023/08/22 10:06:30;;;;;;;20.08;7.20;;;;;;;25.84;100.00;101934.13;5071449;28;20048;-65
2023/08/22 10:08:56;;;;;;;20.67;7.80;;;;;;;26.98;100.00;101942.59;5073196;28;20028;-65
2023/08/22 10:11:22;;;;;;;21.27;7.40;;;;;;;27.12;100.00;101941.94;5068527;28;20476;-65
2023/08/22 10:13:49;;;;;;;21.05;7.78;;;;;;;27.23;99.82;101946.81;5072560;28;20036;-65
2023/08/22 10:16:14;;;;;;;22.20;7.40;;;;;;;27.00;100.00;101940.69;5072691;28;20028;-65
2023/08/22 10:18:40;;;;;;;20.70;7.00;;;;;;;27.30;100.00;101943.75;5072582;28;20040;-65
2023/08/22 10:21:05;;;;;;;19.63;6.78;;;;;;;28.18;90.00;101942.06;5071059;28;20025;-65
2023/08/22 10:23:58;;;;;;;19.30;6.60;;;;;;;29.53;81.99;101932.84;5072296;28;20375;-65
2023/08/22 10:26:28;;;;;;;20.38;6.40;;;;;;;28.95;74.03;101941.59;5068834;28;20028;-66
2023/08/22 10:29:20;;;;;;;18.92;5.70;;;;;;;29.65;75.52;101946.69;5068550;28;20020;-65
2023/08/22 10:32:01;;;;;;;17.48;5.47;;;;;;;29.51;67.72;101944.78;5087205;28;20357;-65
2023/08/22 10:34:38;;;;;;;18.58;5.32;;;;;;;28.50;74.78;101936.75;5071064;28;20048;-65
2023/08/22 10:37:18;;;;;;;17.15;5.28;;;;;;;28.53;73.97;101931.13;5068025;28;20040;-65
2023/08/22 10:39:46;;;;;;;18.13;4.82;;;;;;;29.42;66.63;101938.03;5069365;28;20025;-65
2023/08/22 10:42:22;;;;;;;14.95;4.20;;;;;;;30.28;62.13;101931.16;5072122;28;20021;-66
2023/08/22 10:44:49;;;;;;;13.63;3.80;;;;;;;31.62;58.02;101930.72;5072406;28;20479;-66
2023/08/22 10:47:19;;;;;;;18.80;4.13;;;;;;;31.01;54.96;101935.66;5072291;28;20028;-65
2023/08/22 10:49:55;;;;;;;17.35;4.07;;;;;;;29.97;55.93;101935.72;5072294;28;20025;-65
2023/08/22 10:52:28;;;;;;;13.18;3.45;;;;;;;30.27;55.20;101918.47;5072243;28;20024;-72
2023/08/22 10:55:03;;;;;;;11.07;3.30;;;;;;;30.42;53.88;101931.16;5072590;28;20379;-71
2023/08/22 10:57:32;;;;;;;8.18;2.40;;;;;;;30.14;50.98;101926.53;5072284;28;20032;-71
2023/08/22 11:00:01;;;;;;;8.90;2.30;;;;;;;30.94;50.63;101929.69;5072134;28;20052;-72
2023/08/22 11:02:33;;;;;;;6.38;2.10;;;;;;;31.56;44.60;101936.56;5072113;28;20021;-72
2023/08/22 11:05:01;;;;;;;7.40;2.10;;;;;;;31.06;45.53;101936.22;5072301;28;20082;-71
2023/08/22 11:07:28;;;;;;;6.95;2.10;;;;;;;29.77;47.47;101921.44;5071978;28;20044;-71